Impacts METAR Board
IDs:

KMDW - Chicago/Midway Intl, IL, US

Updated at: 1300 UTC 15 Aug 2018
Potential Impact None Slight Moderate High
Time 15/01Z 15/02Z 15/03Z 15/04Z 15/05Z 15/06Z 15/07Z 15/08Z 15/09Z 15/10Z 15/11Z 15/12Z 15/13Z
Temp84 84 82 81 80 78 77 77 76 75 75 76 77
Dewpt61 62 62 62 63 64 65 65 65 66 67 68 69
Altim29.94 29.95 29.96 29.96 29.95 29.94 29.93 29.94 29.96 29.96 29.95 29.96 29.96
VIS10 10 10 10 10 10 10 10 10 9 9 10 10
CIG250 250 250 250 250 250 250 220 210 200 70 65 200
CoverOVCOVCOVCOVCOVCOVCOVCOVCOVCOVCOVCOVCBKN
FltCatVFRVFRVFRVFRVFRVFRVFRVFRVFRVFRVFRVFRVFR
WX--------------------------
WDir2501802202002001902002001801700190150
WSpd5 7 8 6 6 6 4 5 3 5 0 3 3
WGst-- -- -- -- -- -- -- -- -- -- -- -- --
Raw hourly METARs
KMDW 150053Z 25005KT 10SM FEW060 SCT100 OVC250 29/16 A2994 RMK AO2 SLP126 T02890161
KMDW 150153Z 18007KT 10SM FEW060 SCT100 OVC250 29/17 A2995 RMK AO2 SLP128 T02890167
KMDW 150253Z 22008KT 10SM FEW060 SCT090 OVC250 28/17 A2996 RMK AO2 SLP134 T02780167 53009
KMDW 150353Z 20006KT 10SM OVC250 27/17 A2996 RMK AO2 SLP131 T02720167
KMDW 150453Z 20006KT 10SM OVC250 27/17 A2995 RMK AO2 SLP128 T02670172
KMDW 150553Z 19006KT 10SM OVC250 26/18 A2994 RMK AO2 SLP125 T02560178 10300 20256 403220206 57009
KMDW 150653Z 20004KT 10SM OVC250 25/18 A2993 RMK AO2 SLP122 T02500183
KMDW 150753Z 20005KT 10SM BKN220 OVC250 25/18 A2994 RMK AO2 SLP127 T02500183
KMDW 150853Z 18003KT 10SM BKN210 OVC250 24/18 A2996 RMK AO2 SLP133 T02440183 53006
KMDW 150953Z 17005KT 9SM SCT055 BKN200 OVC250 24/19 A2996 RMK AO2 SLP132 T02390189
KMDW 151053Z 00000KT 9SM SCT049 BKN070 OVC200 24/19 A2995 RMK AO2 SLP132 T02390194
KMDW 151153Z 19003KT 10SM SCT050 BKN065 BKN100 OVC200 24/20 A2996 RMK AO2 SLP134 T02440200 10256 20239 53001
KMDW 151253Z 15003KT 10SM FEW050 FEW070 BKN200 BKN250 25/21 A2996 RMK AO2 SLP132 T02500206



Page loaded:  13:31 UTC  |   06:31 AM Pacific  |   07:31 AM Mountain  |   08:31 AM Central  |   09:31 AM Eastern

 

ADVISORIES

FORECASTS

FORECASTS

OBSERVATIONS

USER TOOLS

ABOUT US